sensor_id;sensor_type;location;lat;lon;timestamp;P1;durP1;ratioP1;P2;durP2;ratioP2
6785;SDS011;3430;51.192;6.048;2024-02-26T00:01:14;4.63;;;2.27;;
6785;SDS011;3430;51.192;6.048;2024-02-26T00:03:39;2.43;;;2.23;;
6785;SDS011;3430;51.192;6.048;2024-02-26T00:06:07;2.33;;;2.13;;
6785;SDS011;3430;51.192;6.048;2024-02-26T00:08:32;2.60;;;2.40;;
6785;SDS011;3430;51.192;6.048;2024-02-26T00:10:58;2.50;;;2.30;;
6785;SDS011;3430;51.192;6.048;2024-02-26T00:13:23;2.87;;;2.47;;
6785;SDS011;3430;51.192;6.048;2024-02-26T00:15:48;2.40;;;2.20;;
6785;SDS011;3430;51.192;6.048;2024-02-26T00:18:14;3.03;;;2.20;;
6785;SDS011;3430;51.192;6.048;2024-02-26T00:20:39;2.80;;;2.57;;
6785;SDS011;3430;51.192;6.048;2024-02-26T00:23:06;2.63;;;2.43;;
6785;SDS011;3430;51.192;6.048;2024-02-26T00:25:32;3.90;;;2.20;;
6785;SDS011;3430;51.192;6.048;2024-02-26T00:27:57;2.50;;;2.30;;
6785;SDS011;3430;51.192;6.048;2024-02-26T00:30:23;3.33;;;2.83;;
6785;SDS011;3430;51.192;6.048;2024-02-26T00:32:48;2.10;;;2.00;;
6785;SDS011;3430;51.192;6.048;2024-02-26T00:35:13;4.10;;;2.47;;
6785;SDS011;3430;51.192;6.048;2024-02-26T00:37:40;2.63;;;2.40;;
6785;SDS011;3430;51.192;6.048;2024-02-26T00:40:08;2.97;;;2.70;;
6785;SDS011;3430;51.192;6.048;2024-02-26T00:42:34;2.43;;;2.23;;
6785;SDS011;3430;51.192;6.048;2024-02-26T00:44:59;2.30;;;2.20;;
6785;SDS011;3430;51.192;6.048;2024-02-26T00:47:24;2.70;;;2.40;;
6785;SDS011;3430;51.192;6.048;2024-02-26T00:49:50;4.57;;;2.40;;
6785;SDS011;3430;51.192;6.048;2024-02-26T00:52:15;2.60;;;2.40;;
6785;SDS011;3430;51.192;6.048;2024-02-26T00:54:41;3.23;;;2.60;;
6785;SDS011;3430;51.192;6.048;2024-02-26T00:57:06;2.57;;;2.37;;
6785;SDS011;3430;51.192;6.048;2024-02-26T00:59:31;3.07;;;2.47;;
6785;SDS011;3430;51.192;6.048;2024-02-26T01:01:57;2.37;;;2.17;;
6785;SDS011;3430;51.192;6.048;2024-02-26T01:04:23;2.40;;;2.20;;
6785;SDS011;3430;51.192;6.048;2024-02-26T01:06:49;2.47;;;2.27;;
6785;SDS011;3430;51.192;6.048;2024-02-26T01:09:14;2.20;;;2.00;;
6785;SDS011;3430;51.192;6.048;2024-02-26T01:11:39;3.20;;;2.30;;
6785;SDS011;3430;51.192;6.048;2024-02-26T01:14:05;2.93;;;2.50;;
6785;SDS011;3430;51.192;6.048;2024-02-26T01:16:31;2.60;;;2.37;;
6785;SDS011;3430;51.192;6.048;2024-02-26T01:18:57;2.90;;;2.27;;
6785;SDS011;3430;51.192;6.048;2024-02-26T01:21:22;4.63;;;2.43;;
6785;SDS011;3430;51.192;6.048;2024-02-26T01:23:47;2.57;;;2.27;;
6785;SDS011;3430;51.192;6.048;2024-02-26T01:26:13;2.83;;;2.10;;
6785;SDS011;3430;51.192;6.048;2024-02-26T01:28:38;2.60;;;2.40;;
6785;SDS011;3430;51.192;6.048;2024-02-26T01:31:03;2.60;;;2.40;;
6785;SDS011;3430;51.192;6.048;2024-02-26T01:33:31;2.87;;;2.30;;
6785;SDS011;3430;51.192;6.048;2024-02-26T01:35:57;2.97;;;2.37;;
6785;SDS011;3430;51.192;6.048;2024-02-26T01:38:22;2.37;;;2.20;;
6785;SDS011;3430;51.192;6.048;2024-02-26T01:40:47;3.13;;;2.30;;
6785;SDS011;3430;51.192;6.048;2024-02-26T01:43:13;2.80;;;2.60;;
6785;SDS011;3430;51.192;6.048;2024-02-26T01:45:38;3.30;;;2.10;;
6785;SDS011;3430;51.192;6.048;2024-02-26T01:48:03;2.60;;;2.20;;
6785;SDS011;3430;51.192;6.048;2024-02-26T01:50:29;2.40;;;2.20;;
6785;SDS011;3430;51.192;6.048;2024-02-26T01:52:54;2.40;;;2.20;;
6785;SDS011;3430;51.192;6.048;2024-02-26T01:55:20;2.63;;;2.20;;
6785;SDS011;3430;51.192;6.048;2024-02-26T01:57:48;2.50;;;2.30;;
6785;SDS011;3430;51.192;6.048;2024-02-26T02:00:13;3.20;;;2.20;;
6785;SDS011;3430;51.192;6.048;2024-02-26T02:02:39;2.60;;;2.10;;
6785;SDS011;3430;51.192;6.048;2024-02-26T02:05:06;2.60;;;2.40;;
6785;SDS011;3430;51.192;6.048;2024-02-26T02:07:33;2.80;;;2.57;;
6785;SDS011;3430;51.192;6.048;2024-02-26T02:09:59;2.57;;;2.37;;
6785;SDS011;3430;51.192;6.048;2024-02-26T02:12:25;2.63;;;2.40;;
6785;SDS011;3430;51.192;6.048;2024-02-26T02:14:50;5.47;;;2.50;;
6785;SDS011;3430;51.192;6.048;2024-02-26T02:17:15;3.60;;;2.50;;
6785;SDS011;3430;51.192;6.048;2024-02-26T02:19:41;3.00;;;1.97;;
6785;SDS011;3430;51.192;6.048;2024-02-26T02:22:06;2.20;;;2.00;;
6785;SDS011;3430;51.192;6.048;2024-02-26T02:24:32;3.87;;;2.30;;
6785;SDS011;3430;51.192;6.048;2024-02-26T02:26:57;2.90;;;2.60;;
6785;SDS011;3430;51.192;6.048;2024-02-26T02:29:22;2.73;;;2.20;;
6785;SDS011;3430;51.192;6.048;2024-02-26T02:31:48;2.43;;;2.23;;
6785;SDS011;3430;51.192;6.048;2024-02-26T02:34:14;3.33;;;2.40;;
6785;SDS011;3430;51.192;6.048;2024-02-26T02:36:52;5.40;;;2.33;;
6785;SDS011;3430;51.192;6.048;2024-02-26T02:39:17;2.10;;;2.00;;
6785;SDS011;3430;51.192;6.048;2024-02-26T02:41:43;2.67;;;2.47;;
6785;SDS011;3430;51.192;6.048;2024-02-26T02:44:08;3.33;;;2.40;;
6785;SDS011;3430;51.192;6.048;2024-02-26T02:46:34;3.30;;;2.30;;
6785;SDS011;3430;51.192;6.048;2024-02-26T02:49:00;2.90;;;2.70;;
6785;SDS011;3430;51.192;6.048;2024-02-26T02:51:25;2.83;;;2.40;;
6785;SDS011;3430;51.192;6.048;2024-02-26T02:53:51;3.33;;;2.57;;
6785;SDS011;3430;51.192;6.048;2024-02-26T02:56:16;3.03;;;2.60;;
6785;SDS011;3430;51.192;6.048;2024-02-26T02:58:41;2.60;;;2.40;;
6785;SDS011;3430;51.192;6.048;2024-02-26T03:01:06;3.03;;;2.37;;
6785;SDS011;3430;51.192;6.048;2024-02-26T03:03:32;2.60;;;2.40;;
6785;SDS011;3430;51.192;6.048;2024-02-26T03:05:57;2.50;;;2.30;;
6785;SDS011;3430;51.192;6.048;2024-02-26T03:08:23;3.67;;;2.40;;
6785;SDS011;3430;51.192;6.048;2024-02-26T03:10:50;2.80;;;2.60;;
6785;SDS011;3430;51.192;6.048;2024-02-26T03:13:16;2.60;;;2.40;;
6785;SDS011;3430;51.192;6.048;2024-02-26T03:15:41;2.80;;;2.57;;
6785;SDS011;3430;51.192;6.048;2024-02-26T03:18:06;2.70;;;2.50;;
6785;SDS011;3430;51.192;6.048;2024-02-26T03:20:32;2.33;;;2.13;;
6785;SDS011;3430;51.192;6.048;2024-02-26T03:22:57;3.37;;;2.40;;
6785;SDS011;3430;51.192;6.048;2024-02-26T03:25:22;4.33;;;2.80;;
6785;SDS011;3430;51.192;6.048;2024-02-26T03:27:47;2.70;;;2.50;;
6785;SDS011;3430;51.192;6.048;2024-02-26T03:30:13;2.90;;;2.50;;
6785;SDS011;3430;51.192;6.048;2024-02-26T03:32:38;2.57;;;2.27;;
6785;SDS011;3430;51.192;6.048;2024-02-26T03:35:04;2.70;;;2.50;;
6785;SDS011;3430;51.192;6.048;2024-02-26T03:37:29;2.63;;;2.23;;
6785;SDS011;3430;51.192;6.048;2024-02-26T03:39:54;2.60;;;2.40;;
6785;SDS011;3430;51.192;6.048;2024-02-26T03:42:22;4.53;;;2.47;;
6785;SDS011;3430;51.192;6.048;2024-02-26T03:44:47;4.07;;;2.10;;
6785;SDS011;3430;51.192;6.048;2024-02-26T03:47:12;2.37;;;2.17;;
6785;SDS011;3430;51.192;6.048;2024-02-26T03:49:38;2.93;;;2.33;;
6785;SDS011;3430;51.192;6.048;2024-02-26T03:52:03;2.53;;;2.20;;
6785;SDS011;3430;51.192;6.048;2024-02-26T03:54:29;2.27;;;2.07;;
6785;SDS011;3430;51.192;6.048;2024-02-26T03:56:54;2.57;;;2.37;;
6785;SDS011;3430;51.192;6.048;2024-02-26T03:59:19;3.60;;;2.43;;
6785;SDS011;3430;51.192;6.048;2024-02-26T04:01:45;2.13;;;2.00;;
6785;SDS011;3430;51.192;6.048;2024-02-26T04:04:12;3.83;;;2.30;;
6785;SDS011;3430;51.192;6.048;2024-02-26T04:06:37;3.07;;;2.37;;
6785;SDS011;3430;51.192;6.048;2024-02-26T04:09:03;2.50;;;2.30;;
6785;SDS011;3430;51.192;6.048;2024-02-26T04:11:29;2.67;;;2.47;;
6785;SDS011;3430;51.192;6.048;2024-02-26T04:13:54;3.20;;;2.63;;
6785;SDS011;3430;51.192;6.048;2024-02-26T04:16:19;2.60;;;2.40;;
6785;SDS011;3430;51.192;6.048;2024-02-26T04:18:45;2.63;;;2.37;;
6785;SDS011;3430;51.192;6.048;2024-02-26T04:21:10;2.77;;;2.40;;
6785;SDS011;3430;51.192;6.048;2024-02-26T04:23:36;3.50;;;2.37;;
6785;SDS011;3430;51.192;6.048;2024-02-26T04:26:01;2.30;;;2.10;;
6785;SDS011;3430;51.192;6.048;2024-02-26T04:28:26;2.90;;;2.57;;
6785;SDS011;3430;51.192;6.048;2024-02-26T04:30:54;2.60;;;2.40;;
6785;SDS011;3430;51.192;6.048;2024-02-26T04:33:19;2.30;;;2.10;;
6785;SDS011;3430;51.192;6.048;2024-02-26T04:35:44;3.03;;;2.73;;
6785;SDS011;3430;51.192;6.048;2024-02-26T04:38:10;2.70;;;2.50;;
6785;SDS011;3430;51.192;6.048;2024-02-26T04:40:35;2.63;;;2.43;;
6785;SDS011;3430;51.192;6.048;2024-02-26T04:43:00;3.47;;;2.73;;
6785;SDS011;3430;51.192;6.048;2024-02-26T04:45:26;2.70;;;2.50;;
6785;SDS011;3430;51.192;6.048;2024-02-26T04:47:51;2.60;;;2.40;;
6785;SDS011;3430;51.192;6.048;2024-02-26T04:50:17;3.17;;;2.50;;
6785;SDS011;3430;51.192;6.048;2024-02-26T04:52:42;3.13;;;2.83;;
6785;SDS011;3430;51.192;6.048;2024-02-26T04:55:07;2.70;;;2.40;;
6785;SDS011;3430;51.192;6.048;2024-02-26T04:57:33;3.13;;;2.60;;
6785;SDS011;3430;51.192;6.048;2024-02-26T04:59:58;2.90;;;2.60;;
6785;SDS011;3430;51.192;6.048;2024-02-26T05:02:24;4.60;;;2.53;;
6785;SDS011;3430;51.192;6.048;2024-02-26T05:04:49;3.73;;;2.60;;
6785;SDS011;3430;51.192;6.048;2024-02-26T05:07:14;2.73;;;2.53;;
6785;SDS011;3430;51.192;6.048;2024-02-26T05:09:42;3.10;;;2.43;;
6785;SDS011;3430;51.192;6.048;2024-02-26T05:12:08;3.50;;;2.73;;
6785;SDS011;3430;51.192;6.048;2024-02-26T05:14:34;3.10;;;2.87;;
6785;SDS011;3430;51.192;6.048;2024-02-26T05:16:59;3.07;;;2.53;;
6785;SDS011;3430;51.192;6.048;2024-02-26T05:19:24;3.07;;;2.33;;
6785;SDS011;3430;51.192;6.048;2024-02-26T05:21:50;2.70;;;2.50;;
6785;SDS011;3430;51.192;6.048;2024-02-26T05:24:16;3.17;;;2.40;;
6785;SDS011;3430;51.192;6.048;2024-02-26T05:26:42;2.70;;;2.50;;
6785;SDS011;3430;51.192;6.048;2024-02-26T05:29:08;3.77;;;2.60;;
6785;SDS011;3430;51.192;6.048;2024-02-26T05:31:33;2.80;;;2.30;;
6785;SDS011;3430;51.192;6.048;2024-02-26T05:33:58;8.53;;;2.70;;
6785;SDS011;3430;51.192;6.048;2024-02-26T05:36:24;3.37;;;2.53;;
6785;SDS011;3430;51.192;6.048;2024-02-26T05:38:50;2.90;;;2.60;;
6785;SDS011;3430;51.192;6.048;2024-02-26T05:41:16;2.83;;;2.50;;
6785;SDS011;3430;51.192;6.048;2024-02-26T05:43:42;4.47;;;2.57;;
6785;SDS011;3430;51.192;6.048;2024-02-26T05:46:07;3.03;;;2.73;;
6785;SDS011;3430;51.192;6.048;2024-02-26T05:48:33;3.60;;;3.30;;
6785;SDS011;3430;51.192;6.048;2024-02-26T05:50:58;3.37;;;2.83;;
6785;SDS011;3430;51.192;6.048;2024-02-26T05:53:24;3.30;;;3.00;;
6785;SDS011;3430;51.192;6.048;2024-02-26T05:55:49;3.93;;;2.63;;
6785;SDS011;3430;51.192;6.048;2024-02-26T05:58:15;3.77;;;3.10;;
6785;SDS011;3430;51.192;6.048;2024-02-26T06:00:40;3.10;;;2.80;;
6785;SDS011;3430;51.192;6.048;2024-02-26T06:03:06;2.83;;;2.57;;
6785;SDS011;3430;51.192;6.048;2024-02-26T06:05:31;6.30;;;3.00;;
6785;SDS011;3430;51.192;6.048;2024-02-26T06:07:57;3.30;;;2.83;;
6785;SDS011;3430;51.192;6.048;2024-02-26T06:10:22;3.87;;;2.83;;
6785;SDS011;3430;51.192;6.048;2024-02-26T06:12:47;4.13;;;2.77;;
6785;SDS011;3430;51.192;6.048;2024-02-26T06:15:13;3.17;;;2.87;;
6785;SDS011;3430;51.192;6.048;2024-02-26T06:17:38;3.67;;;2.77;;
6785;SDS011;3430;51.192;6.048;2024-02-26T06:20:04;3.33;;;3.03;;
6785;SDS011;3430;51.192;6.048;2024-02-26T06:22:31;3.03;;;2.73;;
6785;SDS011;3430;51.192;6.048;2024-02-26T06:24:56;3.53;;;3.23;;
6785;SDS011;3430;51.192;6.048;2024-02-26T06:27:22;3.00;;;2.80;;
6785;SDS011;3430;51.192;6.048;2024-02-26T06:29:47;3.53;;;3.20;;
6785;SDS011;3430;51.192;6.048;2024-02-26T06:32:13;3.40;;;3.00;;
6785;SDS011;3430;51.192;6.048;2024-02-26T06:34:38;3.40;;;3.10;;
6785;SDS011;3430;51.192;6.048;2024-02-26T06:37:06;2.90;;;2.70;;
6785;SDS011;3430;51.192;6.048;2024-02-26T06:39:31;4.00;;;2.70;;
6785;SDS011;3430;51.192;6.048;2024-02-26T06:41:56;4.37;;;2.90;;
6785;SDS011;3430;51.192;6.048;2024-02-26T06:44:26;4.50;;;3.03;;
6785;SDS011;3430;51.192;6.048;2024-02-26T06:46:51;3.17;;;2.67;;
6785;SDS011;3430;51.192;6.048;2024-02-26T06:49:17;3.00;;;2.80;;
6785;SDS011;3430;51.192;6.048;2024-02-26T06:51:42;6.97;;;3.30;;
6785;SDS011;3430;51.192;6.048;2024-02-26T06:54:07;3.57;;;3.27;;
6785;SDS011;3430;51.192;6.048;2024-02-26T06:56:34;3.57;;;3.17;;
6785;SDS011;3430;51.192;6.048;2024-02-26T06:59:00;3.50;;;2.90;;
6785;SDS011;3430;51.192;6.048;2024-02-26T07:01:25;3.70;;;3.17;;
6785;SDS011;3430;51.192;6.048;2024-02-26T07:03:50;3.83;;;3.40;;
6785;SDS011;3430;51.192;6.048;2024-02-26T07:06:16;3.30;;;3.00;;
6785;SDS011;3430;51.192;6.048;2024-02-26T07:08:41;3.77;;;3.13;;
6785;SDS011;3430;51.192;6.048;2024-02-26T07:11:10;3.63;;;2.90;;
6785;SDS011;3430;51.192;6.048;2024-02-26T07:13:35;3.07;;;2.70;;
6785;SDS011;3430;51.192;6.048;2024-02-26T07:16:00;3.50;;;3.13;;
6785;SDS011;3430;51.192;6.048;2024-02-26T07:18:26;3.70;;;3.40;;
6785;SDS011;3430;51.192;6.048;2024-02-26T07:20:51;3.40;;;3.10;;
6785;SDS011;3430;51.192;6.048;2024-02-26T07:23:16;3.93;;;3.40;;
6785;SDS011;3430;51.192;6.048;2024-02-26T07:25:42;4.50;;;3.23;;
6785;SDS011;3430;51.192;6.048;2024-02-26T07:28:09;3.57;;;3.27;;
6785;SDS011;3430;51.192;6.048;2024-02-26T07:30:34;3.93;;;3.53;;
6785;SDS011;3430;51.192;6.048;2024-02-26T07:33:00;3.77;;;2.83;;
6785;SDS011;3430;51.192;6.048;2024-02-26T07:35:25;3.43;;;3.13;;
6785;SDS011;3430;51.192;6.048;2024-02-26T07:37:52;4.07;;;3.67;;
6785;SDS011;3430;51.192;6.048;2024-02-26T07:40:17;3.43;;;3.13;;
6785;SDS011;3430;51.192;6.048;2024-02-26T07:42:43;3.10;;;2.80;;
6785;SDS011;3430;51.192;6.048;2024-02-26T07:45:09;3.70;;;3.30;;
6785;SDS011;3430;51.192;6.048;2024-02-26T07:47:34;3.93;;;3.50;;
6785;SDS011;3430;51.192;6.048;2024-02-26T07:50:01;3.97;;;3.40;;
6785;SDS011;3430;51.192;6.048;2024-02-26T07:52:26;4.10;;;3.80;;
6785;SDS011;3430;51.192;6.048;2024-02-26T07:54:52;3.43;;;3.13;;
6785;SDS011;3430;51.192;6.048;2024-02-26T07:57:17;4.37;;;3.63;;
6785;SDS011;3430;51.192;6.048;2024-02-26T07:59:42;4.03;;;3.60;;
6785;SDS011;3430;51.192;6.048;2024-02-26T08:02:09;3.60;;;3.30;;
6785;SDS011;3430;51.192;6.048;2024-02-26T08:04:35;4.10;;;3.50;;
6785;SDS011;3430;51.192;6.048;2024-02-26T08:07:00;4.10;;;3.43;;
6785;SDS011;3430;51.192;6.048;2024-02-26T08:09:25;3.47;;;3.00;;
6785;SDS011;3430;51.192;6.048;2024-02-26T08:11:51;7.07;;;3.33;;
6785;SDS011;3430;51.192;6.048;2024-02-26T08:14:16;3.30;;;3.00;;
6785;SDS011;3430;51.192;6.048;2024-02-26T08:16:42;3.70;;;3.40;;
6785;SDS011;3430;51.192;6.048;2024-02-26T08:19:07;3.40;;;3.10;;
6785;SDS011;3430;51.192;6.048;2024-02-26T08:21:32;6.60;;;3.03;;
6785;SDS011;3430;51.192;6.048;2024-02-26T08:23:58;3.43;;;3.13;;
6785;SDS011;3430;51.192;6.048;2024-02-26T08:26:23;3.87;;;3.53;;
6785;SDS011;3430;51.192;6.048;2024-02-26T08:28:49;4.23;;;3.07;;
6785;SDS011;3430;51.192;6.048;2024-02-26T08:31:16;3.60;;;3.30;;
6785;SDS011;3430;51.192;6.048;2024-02-26T08:33:41;4.00;;;3.10;;
6785;SDS011;3430;51.192;6.048;2024-02-26T08:36:07;3.10;;;2.80;;
6785;SDS011;3430;51.192;6.048;2024-02-26T08:38:32;4.43;;;3.27;;
6785;SDS011;3430;51.192;6.048;2024-02-26T08:41:00;4.43;;;3.63;;
6785;SDS011;3430;51.192;6.048;2024-02-26T08:43:25;4.80;;;3.43;;
6785;SDS011;3430;51.192;6.048;2024-02-26T08:45:51;6.17;;;3.53;;
6785;SDS011;3430;51.192;6.048;2024-02-26T08:48:16;5.13;;;3.27;;
6785;SDS011;3430;51.192;6.048;2024-02-26T08:50:41;4.63;;;2.97;;
6785;SDS011;3430;51.192;6.048;2024-02-26T08:53:07;3.90;;;3.30;;
6785;SDS011;3430;51.192;6.048;2024-02-26T08:55:32;4.73;;;3.60;;
6785;SDS011;3430;51.192;6.048;2024-02-26T08:57:57;5.23;;;3.13;;
6785;SDS011;3430;51.192;6.048;2024-02-26T09:00:23;3.87;;;2.90;;
6785;SDS011;3430;51.192;6.048;2024-02-26T09:02:48;4.90;;;3.40;;
6785;SDS011;3430;51.192;6.048;2024-02-26T09:05:14;3.87;;;3.20;;
6785;SDS011;3430;51.192;6.048;2024-02-26T09:07:39;4.67;;;3.07;;
6785;SDS011;3430;51.192;6.048;2024-02-26T09:10:05;3.90;;;3.50;;
6785;SDS011;3430;51.192;6.048;2024-02-26T09:12:31;3.20;;;2.90;;
6785;SDS011;3430;51.192;6.048;2024-02-26T09:14:56;3.57;;;2.87;;
6785;SDS011;3430;51.192;6.048;2024-02-26T09:17:22;4.40;;;3.30;;
6785;SDS011;3430;51.192;6.048;2024-02-26T09:19:48;5.33;;;3.97;;
6785;SDS011;3430;51.192;6.048;2024-02-26T09:22:13;3.70;;;3.40;;
6785;SDS011;3430;51.192;6.048;2024-02-26T09:24:38;4.10;;;3.30;;
6785;SDS011;3430;51.192;6.048;2024-02-26T09:27:04;4.13;;;3.50;;
6785;SDS011;3430;51.192;6.048;2024-02-26T09:29:29;4.00;;;3.60;;
6785;SDS011;3430;51.192;6.048;2024-02-26T09:31:54;3.23;;;2.80;;
6785;SDS011;3430;51.192;6.048;2024-02-26T09:34:20;5.33;;;3.67;;
6785;SDS011;3430;51.192;6.048;2024-02-26T09:36:45;3.53;;;3.00;;
6785;SDS011;3430;51.192;6.048;2024-02-26T09:39:10;4.00;;;3.40;;
6785;SDS011;3430;51.192;6.048;2024-02-26T09:41:36;7.97;;;3.50;;
6785;SDS011;3430;51.192;6.048;2024-02-26T09:44:02;3.40;;;3.10;;
6785;SDS011;3430;51.192;6.048;2024-02-26T09:46:29;5.77;;;3.30;;
6785;SDS011;3430;51.192;6.048;2024-02-26T09:48:55;5.80;;;3.33;;
6785;SDS011;3430;51.192;6.048;2024-02-26T09:51:22;4.83;;;3.30;;
6785;SDS011;3430;51.192;6.048;2024-02-26T09:53:48;4.33;;;3.30;;
6785;SDS011;3430;51.192;6.048;2024-02-26T09:56:16;4.17;;;3.00;;
6785;SDS011;3430;51.192;6.048;2024-02-26T09:58:41;3.70;;;3.33;;
6785;SDS011;3430;51.192;6.048;2024-02-26T10:01:10;3.53;;;3.23;;
6785;SDS011;3430;51.192;6.048;2024-02-26T10:03:38;3.53;;;3.07;;
6785;SDS011;3430;51.192;6.048;2024-02-26T10:06:05;3.77;;;3.40;;
6785;SDS011;3430;51.192;6.048;2024-02-26T10:08:31;7.97;;;3.57;;
6785;SDS011;3430;51.192;6.048;2024-02-26T10:10:57;4.50;;;3.40;;
6785;SDS011;3430;51.192;6.048;2024-02-26T10:13:22;3.70;;;3.30;;
6785;SDS011;3430;51.192;6.048;2024-02-26T10:15:48;4.13;;;3.47;;
6785;SDS011;3430;51.192;6.048;2024-02-26T10:18:13;6.07;;;3.40;;
6785;SDS011;3430;51.192;6.048;2024-02-26T10:20:39;6.10;;;3.30;;
6785;SDS011;3430;51.192;6.048;2024-02-26T10:23:04;6.67;;;4.40;;
6785;SDS011;3430;51.192;6.048;2024-02-26T10:25:30;3.87;;;3.23;;
6785;SDS011;3430;51.192;6.048;2024-02-26T10:28:00;3.30;;;3.00;;
6785;SDS011;3430;51.192;6.048;2024-02-26T10:30:27;6.10;;;3.23;;
6785;SDS011;3430;51.192;6.048;2024-02-26T10:32:52;3.73;;;3.43;;
6785;SDS011;3430;51.192;6.048;2024-02-26T10:35:18;5.40;;;3.90;;
6785;SDS011;3430;51.192;6.048;2024-02-26T10:37:46;4.17;;;3.47;;
6785;SDS011;3430;51.192;6.048;2024-02-26T10:40:12;3.60;;;3.30;;
6785;SDS011;3430;51.192;6.048;2024-02-26T10:42:37;4.70;;;3.43;;
6785;SDS011;3430;51.192;6.048;2024-02-26T10:45:04;4.57;;;3.43;;
6785;SDS011;3430;51.192;6.048;2024-02-26T10:47:30;5.53;;;3.70;;
6785;SDS011;3430;51.192;6.048;2024-02-26T10:49:56;2.90;;;2.70;;
6785;SDS011;3430;51.192;6.048;2024-02-26T10:52:22;4.87;;;3.40;;
6785;SDS011;3430;51.192;6.048;2024-02-26T10:54:48;3.93;;;3.53;;
6785;SDS011;3430;51.192;6.048;2024-02-26T10:57:15;5.77;;;3.67;;
6785;SDS011;3430;51.192;6.048;2024-02-26T10:59:41;5.23;;;3.53;;
6785;SDS011;3430;51.192;6.048;2024-02-26T11:02:08;7.17;;;3.60;;
6785;SDS011;3430;51.192;6.048;2024-02-26T11:04:33;4.27;;;3.43;;
6785;SDS011;3430;51.192;6.048;2024-02-26T11:06:59;5.60;;;3.97;;
6785;SDS011;3430;51.192;6.048;2024-02-26T11:09:26;3.67;;;3.07;;
6785;SDS011;3430;51.192;6.048;2024-02-26T11:11:52;4.20;;;3.53;;
6785;SDS011;3430;51.192;6.048;2024-02-26T11:14:19;5.17;;;3.50;;
6785;SDS011;3430;51.192;6.048;2024-02-26T11:16:45;4.47;;;3.40;;
6785;SDS011;3430;51.192;6.048;2024-02-26T11:19:11;3.83;;;3.53;;
6785;SDS011;3430;51.192;6.048;2024-02-26T11:21:38;4.33;;;3.93;;
6785;SDS011;3430;51.192;6.048;2024-02-26T11:24:09;3.57;;;3.10;;
6785;SDS011;3430;51.192;6.048;2024-02-26T11:26:37;5.10;;;3.77;;
6785;SDS011;3430;51.192;6.048;2024-02-26T11:29:03;3.90;;;3.60;;
6785;SDS011;3430;51.192;6.048;2024-02-26T11:31:30;4.30;;;3.47;;
6785;SDS011;3430;51.192;6.048;2024-02-26T11:33:55;3.57;;;3.27;;
6785;SDS011;3430;51.192;6.048;2024-02-26T11:36:21;4.23;;;3.50;;
6785;SDS011;3430;51.192;6.048;2024-02-26T11:38:48;4.43;;;3.53;;
6785;SDS011;3430;51.192;6.048;2024-02-26T11:41:16;3.93;;;3.57;;
6785;SDS011;3430;51.192;6.048;2024-02-26T11:43:58;5.10;;;3.60;;
6785;SDS011;3430;51.192;6.048;2024-02-26T11:46:26;4.00;;;3.60;;
6785;SDS011;3430;51.192;6.048;2024-02-26T11:48:54;4.03;;;3.50;;
6785;SDS011;3430;51.192;6.048;2024-02-26T11:51:24;3.80;;;3.33;;
6785;SDS011;3430;51.192;6.048;2024-02-26T11:53:49;4.00;;;3.60;;
6785;SDS011;3430;51.192;6.048;2024-02-26T11:58:47;3.87;;;3.43;;
6785;SDS011;3430;51.192;6.048;2024-02-26T12:03:58;4.27;;;3.87;;
6785;SDS011;3430;51.192;6.048;2024-02-26T12:06:24;5.80;;;3.77;;
6785;SDS011;3430;51.192;6.048;2024-02-26T12:08:50;3.63;;;3.33;;
6785;SDS011;3430;51.192;6.048;2024-02-26T12:11:15;3.70;;;3.40;;
6785;SDS011;3430;51.192;6.048;2024-02-26T12:13:45;4.73;;;3.50;;
6785;SDS011;3430;51.192;6.048;2024-02-26T12:16:12;3.90;;;3.60;;
6785;SDS011;3430;51.192;6.048;2024-02-26T12:18:37;4.17;;;3.40;;
6785;SDS011;3430;51.192;6.048;2024-02-26T12:21:03;3.80;;;3.47;;
6785;SDS011;3430;51.192;6.048;2024-02-26T12:23:29;3.97;;;3.57;;
6785;SDS011;3430;51.192;6.048;2024-02-26T12:26:01;4.97;;;4.30;;
6785;SDS011;3430;51.192;6.048;2024-02-26T12:28:29;3.70;;;3.40;;
6785;SDS011;3430;51.192;6.048;2024-02-26T12:30:55;5.23;;;3.80;;
6785;SDS011;3430;51.192;6.048;2024-02-26T12:33:20;4.63;;;3.87;;
6785;SDS011;3430;51.192;6.048;2024-02-26T12:35:46;3.80;;;3.40;;
6785;SDS011;3430;51.192;6.048;2024-02-26T12:38:14;3.93;;;3.63;;
6785;SDS011;3430;51.192;6.048;2024-02-26T12:40:39;4.50;;;3.80;;
6785;SDS011;3430;51.192;6.048;2024-02-26T12:43:05;4.57;;;3.70;;
6785;SDS011;3430;51.192;6.048;2024-02-26T12:45:30;3.67;;;3.30;;
6785;SDS011;3430;51.192;6.048;2024-02-26T12:47:56;4.23;;;3.83;;
6785;SDS011;3430;51.192;6.048;2024-02-26T12:50:22;4.30;;;3.80;;
6785;SDS011;3430;51.192;6.048;2024-02-26T12:52:47;4.40;;;3.73;;
6785;SDS011;3430;51.192;6.048;2024-02-26T12:55:17;5.13;;;4.30;;
6785;SDS011;3430;51.192;6.048;2024-02-26T12:57:43;4.23;;;3.40;;
6785;SDS011;3430;51.192;6.048;2024-02-26T13:00:11;4.50;;;3.47;;
6785;SDS011;3430;51.192;6.048;2024-02-26T13:02:37;4.23;;;3.83;;
6785;SDS011;3430;51.192;6.048;2024-02-26T13:05:03;4.10;;;3.70;;
6785;SDS011;3430;51.192;6.048;2024-02-26T13:07:29;4.23;;;3.60;;
6785;SDS011;3430;51.192;6.048;2024-02-26T13:09:54;4.87;;;3.83;;
6785;SDS011;3430;51.192;6.048;2024-02-26T13:12:20;4.97;;;3.80;;
6785;SDS011;3430;51.192;6.048;2024-02-26T13:14:45;4.07;;;3.53;;
6785;SDS011;3430;51.192;6.048;2024-02-26T13:17:11;4.63;;;3.67;;
6785;SDS011;3430;51.192;6.048;2024-02-26T13:19:36;5.40;;;3.77;;
6785;SDS011;3430;51.192;6.048;2024-02-26T13:22:05;4.60;;;3.70;;
6785;SDS011;3430;51.192;6.048;2024-02-26T13:24:31;4.30;;;3.90;;
6785;SDS011;3430;51.192;6.048;2024-02-26T13:26:57;5.17;;;3.93;;
6785;SDS011;3430;51.192;6.048;2024-02-26T13:29:22;4.97;;;3.80;;
6785;SDS011;3430;51.192;6.048;2024-02-26T13:31:53;4.00;;;3.40;;
6785;SDS011;3430;51.192;6.048;2024-02-26T13:34:25;4.50;;;3.93;;
6785;SDS011;3430;51.192;6.048;2024-02-26T13:36:51;4.93;;;3.93;;
6785;SDS011;3430;51.192;6.048;2024-02-26T13:41:48;4.60;;;3.53;;
6785;SDS011;3430;51.192;6.048;2024-02-26T13:44:14;9.43;;;4.93;;
6785;SDS011;3430;51.192;6.048;2024-02-26T13:46:39;5.77;;;4.40;;
6785;SDS011;3430;51.192;6.048;2024-02-26T13:49:07;4.63;;;4.03;;
6785;SDS011;3430;51.192;6.048;2024-02-26T13:51:33;4.90;;;4.27;;
6785;SDS011;3430;51.192;6.048;2024-02-26T13:54:03;7.03;;;4.27;;
6785;SDS011;3430;51.192;6.048;2024-02-26T13:56:29;4.37;;;3.90;;
6785;SDS011;3430;51.192;6.048;2024-02-26T13:58:55;5.63;;;4.07;;
6785;SDS011;3430;51.192;6.048;2024-02-26T14:01:20;5.47;;;4.27;;
6785;SDS011;3430;51.192;6.048;2024-02-26T14:03:46;4.50;;;4.10;;
6785;SDS011;3430;51.192;6.048;2024-02-26T14:06:11;4.60;;;4.20;;
6785;SDS011;3430;51.192;6.048;2024-02-26T14:08:36;4.60;;;4.20;;
6785;SDS011;3430;51.192;6.048;2024-02-26T14:11:02;5.97;;;4.67;;
6785;SDS011;3430;51.192;6.048;2024-02-26T14:13:27;4.43;;;4.03;;
6785;SDS011;3430;51.192;6.048;2024-02-26T14:15:53;4.93;;;4.20;;
6785;SDS011;3430;51.192;6.048;2024-02-26T14:18:18;4.67;;;4.20;;
6785;SDS011;3430;51.192;6.048;2024-02-26T14:20:43;5.63;;;4.20;;
6785;SDS011;3430;51.192;6.048;2024-02-26T14:23:09;4.67;;;4.10;;
6785;SDS011;3430;51.192;6.048;2024-02-26T14:25:35;4.93;;;4.43;;
6785;SDS011;3430;51.192;6.048;2024-02-26T14:28:01;5.17;;;4.63;;
6785;SDS011;3430;51.192;6.048;2024-02-26T14:30:26;5.10;;;4.23;;
6785;SDS011;3430;51.192;6.048;2024-02-26T14:32:52;4.27;;;3.87;;
6785;SDS011;3430;51.192;6.048;2024-02-26T14:35:17;5.30;;;4.20;;
6785;SDS011;3430;51.192;6.048;2024-02-26T14:37:43;4.50;;;3.93;;
6785;SDS011;3430;51.192;6.048;2024-02-26T14:40:11;5.33;;;4.43;;
6785;SDS011;3430;51.192;6.048;2024-02-26T14:42:36;4.83;;;4.40;;
6785;SDS011;3430;51.192;6.048;2024-02-26T14:45:02;6.87;;;4.83;;
6785;SDS011;3430;51.192;6.048;2024-02-26T14:47:27;5.30;;;4.50;;
6785;SDS011;3430;51.192;6.048;2024-02-26T14:49:53;5.10;;;4.60;;
6785;SDS011;3430;51.192;6.048;2024-02-26T14:52:19;4.77;;;4.20;;
6785;SDS011;3430;51.192;6.048;2024-02-26T14:54:44;6.93;;;4.40;;
6785;SDS011;3430;51.192;6.048;2024-02-26T14:57:10;4.80;;;4.23;;
6785;SDS011;3430;51.192;6.048;2024-02-26T14:59:35;4.50;;;4.10;;
6785;SDS011;3430;51.192;6.048;2024-02-26T15:02:01;5.60;;;4.07;;
6785;SDS011;3430;51.192;6.048;2024-02-26T15:04:27;4.67;;;4.23;;
6785;SDS011;3430;51.192;6.048;2024-02-26T15:06:52;5.57;;;4.47;;
6785;SDS011;3430;51.192;6.048;2024-02-26T15:09:18;5.10;;;4.00;;
6785;SDS011;3430;51.192;6.048;2024-02-26T15:11:43;4.57;;;4.17;;
6785;SDS011;3430;51.192;6.048;2024-02-26T15:14:09;5.27;;;4.40;;